Home   Weather   Germany   Offenburg   Past weeks
Flag for Germany

Past Weather in Offenburg, Baden-Württemberg, Germany — Yesterday and Last 2 Weeks

Currently: 36 °F. Clear. (Weather station: Lahr - CAN-AFB, Germany). See more current weather

Past Weather in Offenburg — Graph

°F

Offenburg Temperature Yesterday

Maximum temperature yesterday: 50 °F (at 3:50 pm)
Minimum temperature yesterday: 34 °F (at 11:50 pm)
Average temperature yesterday: 44 °F

High & Low Weather Summary for the Past Weeks

 TemperatureHumidityPressure
High63 °F (Feb 16, 12:20 pm)100% (Feb 10, 1:50 am)30.57 "Hg (Feb 10, 1:50 am)
Low34 °F (Feb 24, 11:50 pm)44% (Feb 23, 3:50 pm)29.06 "Hg (Feb 10, 2:50 pm)
Average48 °F78%29.94 "Hg
* Reported Feb 9 11:20 pm — Feb 24 11:50 pm, Offenburg. Weather by CustomWeather, © 2024

Note: Actual official high and low records may vary slightly from our data, if they occured in-between our weather recording intervals... More about our weather records

Offenburg Weather History for the Previous 24 Hours

Scroll right to see more
 ConditionsComfort  
Time TempWeatherWind HumidityBarometerVisibility
11:50 pm
Sat, Feb 24
34 °FClear.6 mph87%29.74 "HgN/A
11:20 pm39 °FClear.8 mph75%29.74 "HgN/A
10:50 pm39 °FClear.8 mph75%29.74 "HgN/A
10:20 pm39 °FClear.6 mph75%29.74 "HgN/A
9:50 pm36 °FClear.5 mph81%29.74 "HgN/A
9:20 pm41 °FClear.7 mph70%29.74 "HgN/A
8:20 pm43 °FClear.7 mph66%29.71 "HgN/A
7:50 pm43 °FClear.8 mph66%29.71 "HgN/A
7:20 pm45 °FClear.7 mph66%29.71 "HgN/A
6:50 pm45 °FClear.6 mph61%29.71 "HgN/A
6:20 pm46 °FClear.7 mph57%29.71 "HgN/A
5:50 pm48 °FSunny.10 mph54%29.71 "Hg10 mi
5:20 pm48 °FPassing clouds.8 mph54%29.71 "HgN/A
4:50 pm50 °FPassing clouds.8 mph50%29.68 "HgN/A
4:20 pm50 °FSunny.14 mph50%29.68 "Hg10 mi
3:50 pm50 °FPassing clouds.13 mph54%29.68 "HgN/A
3:20 pm48 °FPassing clouds.13 mph58%29.68 "HgN/A
2:50 pm48 °FPassing clouds.9 mph58%29.68 "HgN/A
2:20 pm48 °FSunny.10 mph58%29.68 "Hg10 mi
1:50 pm48 °FPassing clouds.12 mph58%29.65 "HgN/A
1:20 pm48 °FPassing clouds.13 mph58%29.65 "HgN/A
12:50 pm48 °FPassing clouds.14 mph58%29.68 "HgN/A
12:20 pm48 °FSunny.14 mph62%29.65 "Hg10 mi
11:50 am48 °FPassing clouds.15 mph62%29.65 "HgN/A
11:20 am46 °FPassing clouds.14 mph62%29.65 "HgN/A
10:50 am46 °FSunny.14 mph62%29.65 "Hg10 mi
10:20 am46 °FSunny.13 mph62%29.65 "Hg10 mi
9:50 am45 °FPassing clouds.12 mph71%29.65 "HgN/A
9:20 am43 °FSunny.12 mph76%29.62 "Hg10 mi
8:50 am43 °FScattered clouds.15 mph76%29.62 "HgN/A
8:20 am41 °FPartly sunny.15 mph81%29.62 "HgN/A
7:50 am41 °FBroken clouds.16 mph76%29.59 "HgN/A
7:20 am43 °FBroken clouds.16 mph76%29.56 "HgN/A
6:50 am43 °FPartly cloudy.15 mph76%29.53 "HgN/A
6:20 am41 °FQuite cool.17 mph87%29.53 "HgN/A
5:50 am43 °FPassing clouds.12 mph76%29.53 "HgN/A
5:20 am43 °FPassing clouds.3 mph76%29.50 "HgN/A
4:50 am41 °FPassing clouds.5 mph81%29.50 "HgN/A
4:20 am39 °FPassing clouds.7 mph87%29.50 "HgN/A
3:50 am41 °FPassing clouds.5 mph81%29.50 "HgN/A
3:20 am41 °FPassing clouds.9 mph81%29.50 "HgN/A
2:50 am41 °FPassing clouds.8 mph81%29.50 "HgN/A
2:20 am41 °FClear.9 mph87%29.50 "HgN/A
1:50 am41 °FPartly cloudy.7 mph87%29.50 "HgN/A
Weather by CustomWeather, © 2024

See weather overview